sensor_id;sensor_type;location;lat;lon;timestamp;temperature;humidity
1644;DHT22;46825;51.99869940;8.49421771;2023-02-28T00:00:01;-0.20;99.90
1644;DHT22;46825;51.99869940;8.49421771;2023-02-28T00:01:01;-0.10;99.90
1644;DHT22;46825;51.99869940;8.49421771;2023-02-28T00:02:02;-0.20;99.90
1644;DHT22;46825;51.99869940;8.49421771;2023-02-28T00:03:03;-0.20;99.90
1644;DHT22;46825;51.99869940;8.49421771;2023-02-28T00:04:04;-0.20;99.90
1644;DHT22;46825;51.99869940;8.49421771;2023-02-28T00:05:05;-0.20;99.90
1644;DHT22;46825;51.99869940;8.49421771;2023-02-28T00:06:09;-0.10;99.90
1644;DHT22;46825;51.99869940;8.49421771;2023-02-28T00:07:10;-0.10;99.90
1644;DHT22;46825;51.99869940;8.49421771;2023-02-28T00:08:10;-0.30;99.90
1644;DHT22;46825;51.99869940;8.49421771;2023-02-28T00:09:11;-0.20;99.90
1644;DHT22;46825;51.99869940;8.49421771;2023-02-28T00:10:17;-0.20;99.90
1644;DHT22;46825;51.99869940;8.49421771;2023-02-28T00:11:21;-0.20;99.90
1644;DHT22;46825;51.99869940;8.49421771;2023-02-28T00:12:22;-0.20;99.90
1644;DHT22;46825;51.99869940;8.49421771;2023-02-28T00:13:23;-0.20;99.90
1644;DHT22;46825;51.99869940;8.49421771;2023-02-28T00:14:23;-0.20;99.90
1644;DHT22;46825;51.99869940;8.49421771;2023-02-28T00:15:24;-0.20;99.90
1644;DHT22;46825;51.99869940;8.49421771;2023-02-28T00:16:24;-0.30;99.90
1644;DHT22;46825;51.99869940;8.49421771;2023-02-28T00:17:25;-0.30;99.90
1644;DHT22;46825;51.99869940;8.49421771;2023-02-28T00:18:26;-0.30;99.90
1644;DHT22;46825;51.99869940;8.49421771;2023-02-28T00:19:26;-0.30;99.90
1644;DHT22;46825;51.99869940;8.49421771;2023-02-28T00:20:27;-0.30;99.90
1644;DHT22;46825;51.99869940;8.49421771;2023-02-28T00:21:28;-0.30;99.90
1644;DHT22;46825;51.99869940;8.49421771;2023-02-28T00:22:28;-0.30;99.90
1644;DHT22;46825;51.99869940;8.49421771;2023-02-28T00:23:29;-0.30;99.90
1644;DHT22;46825;51.99869940;8.49421771;2023-02-28T00:24:30;-0.30;99.90
1644;DHT22;46825;51.99869940;8.49421771;2023-02-28T00:25:30;-0.30;99.90
1644;DHT22;46825;51.99869940;8.49421771;2023-02-28T00:26:31;-0.40;99.90
1644;DHT22;46825;51.99869940;8.49421771;2023-02-28T00:27:31;-0.30;99.90
1644;DHT22;46825;51.99869940;8.49421771;2023-02-28T00:28:32;-0.20;99.90
1644;DHT22;46825;51.99869940;8.49421771;2023-02-28T00:29:33;-0.20;99.90
1644;DHT22;46825;51.99869940;8.49421771;2023-02-28T00:30:33;-0.20;99.90
1644;DHT22;46825;51.99869940;8.49421771;2023-02-28T00:31:34;-0.20;99.90
1644;DHT22;46825;51.99869940;8.49421771;2023-02-28T00:32:35;-0.20;99.90
1644;DHT22;46825;51.99869940;8.49421771;2023-02-28T00:33:36;-0.20;99.90
1644;DHT22;46825;51.99869940;8.49421771;2023-02-28T00:34:36;0.00;99.90
1644;DHT22;46825;51.99869940;8.49421771;2023-02-28T00:35:37;-0.20;99.90
1644;DHT22;46825;51.99869940;8.49421771;2023-02-28T00:36:38;-0.20;99.90
1644;DHT22;46825;51.99869940;8.49421771;2023-02-28T00:37:39;-0.20;99.90
1644;DHT22;46825;51.99869940;8.49421771;2023-02-28T00:38:40;-0.30;99.90
1644;DHT22;46825;51.99869940;8.49421771;2023-02-28T00:39:41;-0.20;99.90
1644;DHT22;46825;51.99869940;8.49421771;2023-02-28T00:40:42;-0.10;99.90
1644;DHT22;46825;51.99869940;8.49421771;2023-02-28T00:41:42;-0.30;99.90
1644;DHT22;46825;51.99869940;8.49421771;2023-02-28T00:42:43;-0.30;99.90
1644;DHT22;46825;51.99869940;8.49421771;2023-02-28T00:43:43;-0.30;99.90
1644;DHT22;46825;51.99869940;8.49421771;2023-02-28T00:44:44;-0.40;99.90
1644;DHT22;46825;51.99869940;8.49421771;2023-02-28T00:45:44;-0.30;99.90
1644;DHT22;46825;51.99869940;8.49421771;2023-02-28T00:46:45;-0.30;99.90
1644;DHT22;46825;51.99869940;8.49421771;2023-02-28T00:47:46;-0.20;99.90
1644;DHT22;46825;51.99869940;8.49421771;2023-02-28T00:48:49;-0.10;99.90
1644;DHT22;46825;51.99869940;8.49421771;2023-02-28T00:49:50;-0.10;99.90
1644;DHT22;46825;51.99869940;8.49421771;2023-02-28T00:50:50;-0.10;99.90
1644;DHT22;46825;51.99869940;8.49421771;2023-02-28T00:51:52;-0.10;99.90
1644;DHT22;46825;51.99869940;8.49421771;2023-02-28T00:52:52;-0.10;99.90
1644;DHT22;46825;51.99869940;8.49421771;2023-02-28T00:53:53;-0.10;99.90
1644;DHT22;46825;51.99869940;8.49421771;2023-02-28T00:54:54;0.00;99.90
1644;DHT22;46825;51.99869940;8.49421771;2023-02-28T00:55:55;0.00;99.90
1644;DHT22;46825;51.99869940;8.49421771;2023-02-28T00:56:55;0.00;99.90
1644;DHT22;46825;51.99869940;8.49421771;2023-02-28T00:57:56;-0.10;99.90
1644;DHT22;46825;51.99869940;8.49421771;2023-02-28T00:58:56;0.00;99.90
1644;DHT22;46825;51.99869940;8.49421771;2023-02-28T00:59:57;-0.10;99.90
1644;DHT22;46825;51.99869940;8.49421771;2023-02-28T01:00:58;-0.20;99.90
1644;DHT22;46825;51.99869940;8.49421771;2023-02-28T01:01:58;-0.10;99.90
1644;DHT22;46825;51.99869940;8.49421771;2023-02-28T01:02:59;-0.10;99.90
1644;DHT22;46825;51.99869940;8.49421771;2023-02-28T01:04:00;-0.20;99.90
1644;DHT22;46825;51.99869940;8.49421771;2023-02-28T01:05:00;-0.20;99.90
1644;DHT22;46825;51.99869940;8.49421771;2023-02-28T01:06:01;-0.20;99.90
1644;DHT22;46825;51.99869940;8.49421771;2023-02-28T01:07:01;-0.20;99.90
1644;DHT22;46825;51.99869940;8.49421771;2023-02-28T01:08:02;-0.20;99.90
1644;DHT22;46825;51.99869940;8.49421771;2023-02-28T01:09:04;-0.30;99.90
1644;DHT22;46825;51.99869940;8.49421771;2023-02-28T01:10:06;-0.30;99.90
1644;DHT22;46825;51.99869940;8.49421771;2023-02-28T01:11:09;-0.40;99.90
1644;DHT22;46825;51.99869940;8.49421771;2023-02-28T01:12:09;-0.40;99.90
1644;DHT22;46825;51.99869940;8.49421771;2023-02-28T01:13:11;-0.40;99.90
1644;DHT22;46825;51.99869940;8.49421771;2023-02-28T01:14:18;-0.40;99.90
1644;DHT22;46825;51.99869940;8.49421771;2023-02-28T01:15:19;-0.50;99.90
1644;DHT22;46825;51.99869940;8.49421771;2023-02-28T01:16:19;-0.40;99.90
1644;DHT22;46825;51.99869940;8.49421771;2023-02-28T01:17:20;-0.50;99.90
1644;DHT22;46825;51.99869940;8.49421771;2023-02-28T01:18:22;-0.30;99.90
1644;DHT22;46825;51.99869940;8.49421771;2023-02-28T01:19:23;-0.50;99.90
1644;DHT22;46825;51.99869940;8.49421771;2023-02-28T01:20:24;-0.60;99.90
1644;DHT22;46825;51.99869940;8.49421771;2023-02-28T01:21:25;-0.60;99.90
1644;DHT22;46825;51.99869940;8.49421771;2023-02-28T01:22:25;-0.60;99.90
1644;DHT22;46825;51.99869940;8.49421771;2023-02-28T01:23:26;-0.60;99.90
1644;DHT22;46825;51.99869940;8.49421771;2023-02-28T01:24:26;-0.60;99.90
1644;DHT22;46825;51.99869940;8.49421771;2023-02-28T01:25:27;-0.60;99.90
1644;DHT22;46825;51.99869940;8.49421771;2023-02-28T01:26:27;-0.60;99.90
1644;DHT22;46825;51.99869940;8.49421771;2023-02-28T01:27:28;-0.60;99.90
1644;DHT22;46825;51.99869940;8.49421771;2023-02-28T01:28:29;-0.70;99.90
1644;DHT22;46825;51.99869940;8.49421771;2023-02-28T01:29:30;-0.70;99.90
1644;DHT22;46825;51.99869940;8.49421771;2023-02-28T01:30:30;-0.70;99.90
1644;DHT22;46825;51.99869940;8.49421771;2023-02-28T01:31:31;-0.70;99.90
1644;DHT22;46825;51.99869940;8.49421771;2023-02-28T01:32:32;-0.70;99.90
1644;DHT22;46825;51.99869940;8.49421771;2023-02-28T01:33:33;-0.80;99.90
1644;DHT22;46825;51.99869940;8.49421771;2023-02-28T01:34:33;-0.70;99.90
1644;DHT22;46825;51.99869940;8.49421771;2023-02-28T01:35:35;-0.70;99.90
1644;DHT22;46825;51.99869940;8.49421771;2023-02-28T01:36:36;-0.70;99.90
1644;DHT22;46825;51.99869940;8.49421771;2023-02-28T01:37:36;-0.70;99.90
1644;DHT22;46825;51.99869940;8.49421771;2023-02-28T01:38:37;-0.70;99.90
1644;DHT22;46825;51.99869940;8.49421771;2023-02-28T01:39:38;-0.70;99.90
1644;DHT22;46825;51.99869940;8.49421771;2023-02-28T01:40:39;-0.60;99.90
1644;DHT22;46825;51.99869940;8.49421771;2023-02-28T01:41:39;-0.60;99.90
1644;DHT22;46825;51.99869940;8.49421771;2023-02-28T01:42:40;-0.60;99.90
1644;DHT22;46825;51.99869940;8.49421771;2023-02-28T01:45:58;-0.60;99.90
1644;DHT22;46825;51.99869940;8.49421771;2023-02-28T01:46:59;-0.50;99.90
1644;DHT22;46825;51.99869940;8.49421771;2023-02-28T01:48:07;-0.60;99.90
1644;DHT22;46825;51.99869940;8.49421771;2023-02-28T01:49:12;-0.60;99.90
1644;DHT22;46825;51.99869940;8.49421771;2023-02-28T01:50:20;-0.60;99.90
1644;DHT22;46825;51.99869940;8.49421771;2023-02-28T01:51:30;-0.60;99.90
1644;DHT22;46825;51.99869940;8.49421771;2023-02-28T01:52:33;-0.60;99.90
1644;DHT22;46825;51.99869940;8.49421771;2023-02-28T01:53:39;-0.70;99.90
1644;DHT22;46825;51.99869940;8.49421771;2023-02-28T01:54:41;-0.70;99.90
1644;DHT22;46825;51.99869940;8.49421771;2023-02-28T01:55:44;-0.60;99.90
1644;DHT22;46825;51.99869940;8.49421771;2023-02-28T01:56:50;-0.70;99.90
1644;DHT22;46825;51.99869940;8.49421771;2023-02-28T01:57:56;-0.60;99.90
1644;DHT22;46825;51.99869940;8.49421771;2023-02-28T01:58:57;-0.70;99.90
1644;DHT22;46825;51.99869940;8.49421771;2023-02-28T02:00:03;-0.60;99.90
1644;DHT22;46825;51.99869940;8.49421771;2023-02-28T02:01:08;-0.70;99.90
1644;DHT22;46825;51.99869940;8.49421771;2023-02-28T02:02:08;-0.60;99.90
1644;DHT22;46825;51.99869940;8.49421771;2023-02-28T02:03:12;-0.60;99.90
1644;DHT22;46825;51.99869940;8.49421771;2023-02-28T02:04:13;-0.60;99.90
1644;DHT22;46825;51.99869940;8.49421771;2023-02-28T02:05:22;-0.60;99.90
1644;DHT22;46825;51.99869940;8.49421771;2023-02-28T02:06:47;-0.60;99.90
1644;DHT22;46825;51.99869940;8.49421771;2023-02-28T02:07:54;-0.60;99.90
1644;DHT22;46825;51.99869940;8.49421771;2023-02-28T02:08:55;-0.60;99.90
1644;DHT22;46825;51.99869940;8.49421771;2023-02-28T02:10:13;-0.60;99.90
1644;DHT22;46825;51.99869940;8.49421771;2023-02-28T02:11:18;-0.70;99.90
1644;DHT22;46825;51.99869940;8.49421771;2023-02-28T02:14:59;-0.80;99.90
1644;DHT22;46825;51.99869940;8.49421771;2023-02-28T02:17:28;-0.80;99.90
1644;DHT22;46825;51.99869940;8.49421771;2023-02-28T02:18:48;-0.80;99.90
1644;DHT22;46825;51.99869940;8.49421771;2023-02-28T02:20:13;-0.80;99.90
1644;DHT22;46825;51.99869940;8.49421771;2023-02-28T02:25:56;-0.70;99.90
1644;DHT22;46825;51.99869940;8.49421771;2023-02-28T02:27:14;-0.70;99.90
1644;DHT22;46825;51.99869940;8.49421771;2023-02-28T02:36:44;-0.60;99.90
1644;DHT22;46825;51.99869940;8.49421771;2023-02-28T02:39:02;-0.60;99.90
1644;DHT22;46825;51.99869940;8.49421771;2023-02-28T02:41:28;-0.60;99.90
1644;DHT22;46825;51.99869940;8.49421771;2023-02-28T02:44:32;-0.70;99.90
1644;DHT22;46825;51.99869940;8.49421771;2023-02-28T02:45:40;-0.70;99.90
1644;DHT22;46825;51.99869940;8.49421771;2023-02-28T02:46:45;-0.80;99.90
1644;DHT22;46825;51.99869940;8.49421771;2023-02-28T02:47:48;-0.80;99.90
1644;DHT22;46825;51.99869940;8.49421771;2023-02-28T02:48:50;-0.90;99.90
1644;DHT22;46825;51.99869940;8.49421771;2023-02-28T02:49:57;-0.90;99.90
1644;DHT22;46825;51.99869940;8.49421771;2023-02-28T02:51:01;-0.90;99.90
1644;DHT22;46825;51.99869940;8.49421771;2023-02-28T02:52:07;-0.90;99.90
1644;DHT22;46825;51.99869940;8.49421771;2023-02-28T02:53:09;-0.90;99.90
1644;DHT22;46825;51.99869940;8.49421771;2023-02-28T02:54:19;-0.90;99.90
1644;DHT22;46825;51.99869940;8.49421771;2023-02-28T02:55:22;-1.00;99.90
1644;DHT22;46825;51.99869940;8.49421771;2023-02-28T02:56:26;-0.40;99.90
1644;DHT22;46825;51.99869940;8.49421771;2023-02-28T02:57:55;-0.90;99.90
1644;DHT22;46825;51.99869940;8.49421771;2023-02-28T02:59:02;-0.90;99.90
1644;DHT22;46825;51.99869940;8.49421771;2023-02-28T03:00:05;-0.80;99.90
1644;DHT22;46825;51.99869940;8.49421771;2023-02-28T03:01:14;-0.80;99.90
1644;DHT22;46825;51.99869940;8.49421771;2023-02-28T03:02:17;-0.80;99.90
1644;DHT22;46825;51.99869940;8.49421771;2023-02-28T03:03:18;-0.80;99.90
1644;DHT22;46825;51.99869940;8.49421771;2023-02-28T03:04:23;-0.80;99.90
1644;DHT22;46825;51.99869940;8.49421771;2023-02-28T03:05:31;-0.80;99.90
1644;DHT22;46825;51.99869940;8.49421771;2023-02-28T03:06:34;-0.90;99.90
1644;DHT22;46825;51.99869940;8.49421771;2023-02-28T03:07:35;-1.00;99.90
1644;DHT22;46825;51.99869940;8.49421771;2023-02-28T03:08:37;-1.00;99.90
1644;DHT22;46825;51.99869940;8.49421771;2023-02-28T03:09:38;-1.00;99.90
1644;DHT22;46825;51.99869940;8.49421771;2023-02-28T03:10:44;-1.00;99.90
1644;DHT22;46825;51.99869940;8.49421771;2023-02-28T03:11:46;-1.10;99.90
1644;DHT22;46825;51.99869940;8.49421771;2023-02-28T03:13:00;-1.10;99.90
1644;DHT22;46825;51.99869940;8.49421771;2023-02-28T03:15:36;-1.20;99.90
1644;DHT22;46825;51.99869940;8.49421771;2023-02-28T03:18:10;-1.30;99.90
1644;DHT22;46825;51.99869940;8.49421771;2023-02-28T03:23:15;-1.30;99.90
1644;DHT22;46825;51.99869940;8.49421771;2023-02-28T03:24:32;-1.30;99.90
1644;DHT22;46825;51.99869940;8.49421771;2023-02-28T03:26:58;-1.30;99.90
1644;DHT22;46825;51.99869940;8.49421771;2023-02-28T03:28:04;-1.40;99.90
1644;DHT22;46825;51.99869940;8.49421771;2023-02-28T03:29:23;-1.40;99.90
1644;DHT22;46825;51.99869940;8.49421771;2023-02-28T03:30:38;-1.40;99.90
1644;DHT22;46825;51.99869940;8.49421771;2023-02-28T03:31:43;-1.40;99.90
1644;DHT22;46825;51.99869940;8.49421771;2023-02-28T03:32:53;-1.50;99.90
1644;DHT22;46825;51.99869940;8.49421771;2023-02-28T03:35:37;-1.50;99.90
1644;DHT22;46825;51.99869940;8.49421771;2023-02-28T03:36:43;-1.50;99.90
1644;DHT22;46825;51.99869940;8.49421771;2023-02-28T03:37:46;-1.50;99.90
1644;DHT22;46825;51.99869940;8.49421771;2023-02-28T03:39:03;-1.50;99.90
1644;DHT22;46825;51.99869940;8.49421771;2023-02-28T03:40:11;-1.40;99.90
1644;DHT22;46825;51.99869940;8.49421771;2023-02-28T03:41:19;-1.30;99.90
1644;DHT22;46825;51.99869940;8.49421771;2023-02-28T03:42:27;-1.30;99.90
1644;DHT22;46825;51.99869940;8.49421771;2023-02-28T03:43:31;-1.40;99.90
1644;DHT22;46825;51.99869940;8.49421771;2023-02-28T03:44:54;-1.40;99.90
1644;DHT22;46825;51.99869940;8.49421771;2023-02-28T03:45:56;-1.40;99.90
1644;DHT22;46825;51.99869940;8.49421771;2023-02-28T03:47:12;-1.40;99.90
1644;DHT22;46825;51.99869940;8.49421771;2023-02-28T03:48:28;-1.50;99.90
1644;DHT22;46825;51.99869940;8.49421771;2023-02-28T03:49:45;-1.50;99.90
1644;DHT22;46825;51.99869940;8.49421771;2023-02-28T03:50:50;-1.40;99.90
1644;DHT22;46825;51.99869940;8.49421771;2023-02-28T03:51:53;-1.40;99.90
1644;DHT22;46825;51.99869940;8.49421771;2023-02-28T03:53:04;-1.40;99.90
1644;DHT22;46825;51.99869940;8.49421771;2023-02-28T03:54:10;-1.50;99.90
1644;DHT22;46825;51.99869940;8.49421771;2023-02-28T03:55:14;-1.40;99.90
1644;DHT22;46825;51.99869940;8.49421771;2023-02-28T03:56:36;-1.40;99.90
1644;DHT22;46825;51.99869940;8.49421771;2023-02-28T03:57:59;-1.40;99.90
1644;DHT22;46825;51.99869940;8.49421771;2023-02-28T03:59:06;-1.40;99.90
1644;DHT22;46825;51.99869940;8.49421771;2023-02-28T04:00:38;-1.40;99.90
1644;DHT22;46825;51.99869940;8.49421771;2023-02-28T04:01:40;-1.40;99.90
1644;DHT22;46825;51.99869940;8.49421771;2023-02-28T04:02:41;-1.50;99.90
1644;DHT22;46825;51.99869940;8.49421771;2023-02-28T04:03:42;-1.50;99.90
1644;DHT22;46825;51.99869940;8.49421771;2023-02-28T04:04:43;-1.50;99.90
1644;DHT22;46825;51.99869940;8.49421771;2023-02-28T04:05:52;-1.50;99.90
1644;DHT22;46825;51.99869940;8.49421771;2023-02-28T04:07:07;-1.50;99.90
1644;DHT22;46825;51.99869940;8.49421771;2023-02-28T04:08:08;-1.50;99.90
1644;DHT22;46825;51.99869940;8.49421771;2023-02-28T04:09:11;-1.50;99.90
1644;DHT22;46825;51.99869940;8.49421771;2023-02-28T04:10:13;-1.40;99.90
1644;DHT22;46825;51.99869940;8.49421771;2023-02-28T04:11:34;-1.50;99.90
1644;DHT22;46825;51.99869940;8.49421771;2023-02-28T04:12:35;-1.50;99.90
1644;DHT22;46825;51.99869940;8.49421771;2023-02-28T04:13:36;-1.50;99.90
1644;DHT22;46825;51.99869940;8.49421771;2023-02-28T04:14:36;-1.50;99.90
1644;DHT22;46825;51.99869940;8.49421771;2023-02-28T04:15:37;-1.60;99.90
1644;DHT22;46825;51.99869940;8.49421771;2023-02-28T04:16:40;-1.60;99.90
1644;DHT22;46825;51.99869940;8.49421771;2023-02-28T04:17:41;-1.60;99.90
1644;DHT22;46825;51.99869940;8.49421771;2023-02-28T04:18:42;-1.60;99.90
1644;DHT22;46825;51.99869940;8.49421771;2023-02-28T04:19:43;-1.60;99.90
1644;DHT22;46825;51.99869940;8.49421771;2023-02-28T04:20:43;-1.60;99.90
1644;DHT22;46825;51.99869940;8.49421771;2023-02-28T04:21:46;-1.50;99.90
1644;DHT22;46825;51.99869940;8.49421771;2023-02-28T04:22:48;-1.50;99.90
1644;DHT22;46825;51.99869940;8.49421771;2023-02-28T04:23:48;-1.50;99.90
1644;DHT22;46825;51.99869940;8.49421771;2023-02-28T04:24:51;-1.50;99.90
1644;DHT22;46825;51.99869940;8.49421771;2023-02-28T04:25:55;-1.00;99.90
1644;DHT22;46825;51.99869940;8.49421771;2023-02-28T04:26:57;-1.50;99.90
1644;DHT22;46825;51.99869940;8.49421771;2023-02-28T04:27:58;-1.50;99.90
1644;DHT22;46825;51.99869940;8.49421771;2023-02-28T04:28:59;-1.50;99.90
1644;DHT22;46825;51.99869940;8.49421771;2023-02-28T04:30:00;-1.60;99.90
1644;DHT22;46825;51.99869940;8.49421771;2023-02-28T04:31:02;-1.60;99.90
1644;DHT22;46825;51.99869940;8.49421771;2023-02-28T04:32:04;-1.60;99.90
1644;DHT22;46825;51.99869940;8.49421771;2023-02-28T04:33:05;-1.60;99.90
1644;DHT22;46825;51.99869940;8.49421771;2023-02-28T04:34:06;-1.60;99.90
1644;DHT22;46825;51.99869940;8.49421771;2023-02-28T04:35:07;-1.70;99.90
1644;DHT22;46825;51.99869940;8.49421771;2023-02-28T04:36:08;-1.70;99.90
1644;DHT22;46825;51.99869940;8.49421771;2023-02-28T04:37:09;-1.70;99.90
1644;DHT22;46825;51.99869940;8.49421771;2023-02-28T04:38:09;-1.80;99.90
1644;DHT22;46825;51.99869940;8.49421771;2023-02-28T04:39:10;-1.70;99.90
1644;DHT22;46825;51.99869940;8.49421771;2023-02-28T04:40:11;-1.80;99.90
1644;DHT22;46825;51.99869940;8.49421771;2023-02-28T04:41:12;-1.70;99.90
1644;DHT22;46825;51.99869940;8.49421771;2023-02-28T04:42:13;-1.70;99.90
1644;DHT22;46825;51.99869940;8.49421771;2023-02-28T04:43:14;-1.70;99.90
1644;DHT22;46825;51.99869940;8.49421771;2023-02-28T04:44:15;-1.70;99.90
1644;DHT22;46825;51.99869940;8.49421771;2023-02-28T04:45:16;-1.70;99.90
1644;DHT22;46825;51.99869940;8.49421771;2023-02-28T04:46:17;-1.70;99.90
1644;DHT22;46825;51.99869940;8.49421771;2023-02-28T04:47:18;-1.60;99.90
1644;DHT22;46825;51.99869940;8.49421771;2023-02-28T04:48:19;-1.60;99.90
1644;DHT22;46825;51.99869940;8.49421771;2023-02-28T04:49:20;-1.70;99.90
1644;DHT22;46825;51.99869940;8.49421771;2023-02-28T04:50:20;-1.70;99.90
1644;DHT22;46825;51.99869940;8.49421771;2023-02-28T04:51:21;-1.70;99.90
1644;DHT22;46825;51.99869940;8.49421771;2023-02-28T04:52:21;-1.70;99.90
1644;DHT22;46825;51.99869940;8.49421771;2023-02-28T04:53:22;-1.70;99.90
1644;DHT22;46825;51.99869940;8.49421771;2023-02-28T04:54:23;-1.70;99.90
1644;DHT22;46825;51.99869940;8.49421771;2023-02-28T04:55:23;-1.70;99.90
1644;DHT22;46825;51.99869940;8.49421771;2023-02-28T04:56:24;-1.70;99.90
1644;DHT22;46825;51.99869940;8.49421771;2023-02-28T04:57:24;-0.70;99.90
1644;DHT22;46825;51.99869940;8.49421771;2023-02-28T04:58:25;-1.70;99.90
1644;DHT22;46825;51.99869940;8.49421771;2023-02-28T04:59:26;-1.80;99.90
1644;DHT22;46825;51.99869940;8.49421771;2023-02-28T05:00:26;-1.80;99.90
1644;DHT22;46825;51.99869940;8.49421771;2023-02-28T05:01:29;-1.80;99.90
1644;DHT22;46825;51.99869940;8.49421771;2023-02-28T05:02:30;-1.90;99.90
1644;DHT22;46825;51.99869940;8.49421771;2023-02-28T05:03:31;-1.90;99.90
1644;DHT22;46825;51.99869940;8.49421771;2023-02-28T05:04:33;-2.00;99.90
1644;DHT22;46825;51.99869940;8.49421771;2023-02-28T05:05:34;-2.00;99.90
1644;DHT22;46825;51.99869940;8.49421771;2023-02-28T05:06:34;-2.00;99.90
1644;DHT22;46825;51.99869940;8.49421771;2023-02-28T05:07:35;-2.00;99.90
1644;DHT22;46825;51.99869940;8.49421771;2023-02-28T05:08:36;-2.10;99.90
1644;DHT22;46825;51.99869940;8.49421771;2023-02-28T05:09:37;-2.00;99.90
1644;DHT22;46825;51.99869940;8.49421771;2023-02-28T05:10:38;-2.00;99.90
1644;DHT22;46825;51.99869940;8.49421771;2023-02-28T05:11:40;-2.00;99.90
1644;DHT22;46825;51.99869940;8.49421771;2023-02-28T05:12:40;-1.90;99.90
1644;DHT22;46825;51.99869940;8.49421771;2023-02-28T05:13:41;-2.00;99.90
1644;DHT22;46825;51.99869940;8.49421771;2023-02-28T05:14:42;-1.80;99.90
1644;DHT22;46825;51.99869940;8.49421771;2023-02-28T05:15:44;-1.80;99.90
1644;DHT22;46825;51.99869940;8.49421771;2023-02-28T05:16:45;-1.80;99.90
1644;DHT22;46825;51.99869940;8.49421771;2023-02-28T05:17:45;-1.90;99.90
1644;DHT22;46825;51.99869940;8.49421771;2023-02-28T05:18:46;-1.80;99.90
1644;DHT22;46825;51.99869940;8.49421771;2023-02-28T05:19:50;-1.70;99.90
1644;DHT22;46825;51.99869940;8.49421771;2023-02-28T05:20:50;-2.00;99.90
1644;DHT22;46825;51.99869940;8.49421771;2023-02-28T05:21:53;-1.70;99.90
1644;DHT22;46825;51.99869940;8.49421771;2023-02-28T05:22:54;-1.70;99.90
1644;DHT22;46825;51.99869940;8.49421771;2023-02-28T05:23:57;-1.70;99.90
1644;DHT22;46825;51.99869940;8.49421771;2023-02-28T05:24:58;-0.30;99.90
1644;DHT22;46825;51.99869940;8.49421771;2023-02-28T05:25:58;-1.70;99.90
1644;DHT22;46825;51.99869940;8.49421771;2023-02-28T05:26:59;-1.70;99.90
1644;DHT22;46825;51.99869940;8.49421771;2023-02-28T05:28:00;-1.60;99.90
1644;DHT22;46825;51.99869940;8.49421771;2023-02-28T05:29:00;-4.00;99.90
1644;DHT22;46825;51.99869940;8.49421771;2023-02-28T05:30:01;-1.60;99.90
1644;DHT22;46825;51.99869940;8.49421771;2023-02-28T05:31:04;-1.70;99.90
1644;DHT22;46825;51.99869940;8.49421771;2023-02-28T05:32:05;-1.60;99.90
1644;DHT22;46825;51.99869940;8.49421771;2023-02-28T05:33:05;-1.60;99.90
1644;DHT22;46825;51.99869940;8.49421771;2023-02-28T05:34:06;-1.60;99.90
1644;DHT22;46825;51.99869940;8.49421771;2023-02-28T05:35:07;-1.70;99.90
1644;DHT22;46825;51.99869940;8.49421771;2023-02-28T05:36:08;-1.70;99.90
1644;DHT22;46825;51.99869940;8.49421771;2023-02-28T05:37:12;-1.70;99.90
1644;DHT22;46825;51.99869940;8.49421771;2023-02-28T05:38:13;-1.80;99.90
1644;DHT22;46825;51.99869940;8.49421771;2023-02-28T05:39:13;-1.80;99.90
1644;DHT22;46825;51.99869940;8.49421771;2023-02-28T05:40:14;-1.90;99.90
1644;DHT22;46825;51.99869940;8.49421771;2023-02-28T05:41:16;-1.90;99.90
1644;DHT22;46825;51.99869940;8.49421771;2023-02-28T05:42:16;-1.90;99.90
1644;DHT22;46825;51.99869940;8.49421771;2023-02-28T05:43:17;-1.90;99.90
1644;DHT22;46825;51.99869940;8.49421771;2023-02-28T05:44:17;-1.90;99.90
1644;DHT22;46825;51.99869940;8.49421771;2023-02-28T05:45:18;-1.80;99.90
1644;DHT22;46825;51.99869940;8.49421771;2023-02-28T05:46:19;-1.80;99.90
1644;DHT22;46825;51.99869940;8.49421771;2023-02-28T05:47:19;-1.80;99.90
1644;DHT22;46825;51.99869940;8.49421771;2023-02-28T05:48:20;-1.80;99.90
1644;DHT22;46825;51.99869940;8.49421771;2023-02-28T05:49:20;-1.80;99.90
1644;DHT22;46825;51.99869940;8.49421771;2023-02-28T05:50:21;-1.80;99.90
1644;DHT22;46825;51.99869940;8.49421771;2023-02-28T05:51:22;-1.70;99.90
1644;DHT22;46825;51.99869940;8.49421771;2023-02-28T05:52:22;-1.70;99.90
1644;DHT22;46825;51.99869940;8.49421771;2023-02-28T05:53:23;-1.70;99.90
1644;DHT22;46825;51.99869940;8.49421771;2023-02-28T05:54:24;-1.70;99.90
1644;DHT22;46825;51.99869940;8.49421771;2023-02-28T05:55:24;-1.80;99.90
1644;DHT22;46825;51.99869940;8.49421771;2023-02-28T05:56:25;-1.80;99.90
1644;DHT22;46825;51.99869940;8.49421771;2023-02-28T05:57:26;-0.80;99.90
1644;DHT22;46825;51.99869940;8.49421771;2023-02-28T05:58:26;-1.80;99.90
1644;DHT22;46825;51.99869940;8.49421771;2023-02-28T05:59:30;-1.80;99.90
1644;DHT22;46825;51.99869940;8.49421771;2023-02-28T06:00:31;-1.80;99.90
1644;DHT22;46825;51.99869940;8.49421771;2023-02-28T06:01:41;-1.80;99.90
1644;DHT22;46825;51.99869940;8.49421771;2023-02-28T06:02:42;-1.80;99.90
1644;DHT22;46825;51.99869940;8.49421771;2023-02-28T06:03:43;-1.80;99.90
1644;DHT22;46825;51.99869940;8.49421771;2023-02-28T06:04:44;-1.80;99.90
1644;DHT22;46825;51.99869940;8.49421771;2023-02-28T06:05:44;-1.80;99.90
1644;DHT22;46825;51.99869940;8.49421771;2023-02-28T06:06:49;-1.80;99.90
1644;DHT22;46825;51.99869940;8.49421771;2023-02-28T06:07:50;-1.80;99.90
1644;DHT22;46825;51.99869940;8.49421771;2023-02-28T06:08:50;-1.80;99.90
1644;DHT22;46825;51.99869940;8.49421771;2023-02-28T06:09:51;-1.80;99.90
1644;DHT22;46825;51.99869940;8.49421771;2023-02-28T06:10:51;-1.70;99.90
1644;DHT22;46825;51.99869940;8.49421771;2023-02-28T06:11:53;-1.70;99.90
1644;DHT22;46825;51.99869940;8.49421771;2023-02-28T06:12:54;-1.70;99.90
1644;DHT22;46825;51.99869940;8.49421771;2023-02-28T06:13:56;-1.70;99.90
1644;DHT22;46825;51.99869940;8.49421771;2023-02-28T06:14:57;-1.70;99.90
1644;DHT22;46825;51.99869940;8.49421771;2023-02-28T06:16:01;-1.70;99.90
1644;DHT22;46825;51.99869940;8.49421771;2023-02-28T06:17:02;-1.70;99.90
1644;DHT22;46825;51.99869940;8.49421771;2023-02-28T06:18:03;-1.70;99.90
1644;DHT22;46825;51.99869940;8.49421771;2023-02-28T06:19:03;-1.60;99.90
1644;DHT22;46825;51.99869940;8.49421771;2023-02-28T06:20:06;-1.70;99.90
1644;DHT22;46825;51.99869940;8.49421771;2023-02-28T06:21:06;-1.80;99.90
1644;DHT22;46825;51.99869940;8.49421771;2023-02-28T06:22:09;-1.70;99.90